Time;durP1;ratioP1;P1;durP2;ratioP2;P2;SDS_P1;SDS_P2;PMS_P1;PMS_P2;Temp;Humidity;BMP_temperature;BMP_pressure;BME280_temperature;BME280_humidity;BME280_pressure;Samples;Min_cycle;Max_cycle;Signal;HPM_P1;HPM_P2
2023/03/23 00:00:43;;;;;;;8.77;4.47;;;23.70;45.40;;;;;;6147502;28;80954;-64
2023/03/23 00:03:44;;;;;;;6.82;4.70;;;23.70;45.60;;;;;;6154783;28;82800;-63
2023/03/23 00:06:45;;;;;;;5.55;4.38;;;23.70;45.40;;;;;;6155164;28;80499;-63
2023/03/23 00:09:47;;;;;;;7.07;4.43;;;23.70;45.40;;;;;;6149478;28;80493;-65
2023/03/23 00:12:49;;;;;;;5.53;4.05;;;23.70;45.40;;;;;;6150284;28;80478;-64
2023/03/23 00:15:51;;;;;;;6.32;4.32;;;23.70;45.30;;;;;;6153585;28;81244;-65
2023/03/23 00:18:52;;;;;;;6.07;4.38;;;23.70;45.30;;;;;;6154622;28;80932;-65
2023/03/23 00:21:55;;;;;;;5.35;3.72;;;23.60;45.10;;;;;;6150297;28;83836;-65
2023/03/23 00:24:58;;;;;;;;;;;23.60;45.20;;;;;;6155672;28;80457;-65
2023/03/23 00:28:00;;;;;;;5.60;4.07;;;23.60;45.40;;;;;;6160527;28;80823;-66
2023/03/23 00:31:00;;;;;;;5.57;3.70;;;23.70;45.50;;;;;;6153819;28;80756;-66
2023/03/23 00:34:03;;;;;;;6.50;4.00;;;23.70;45.60;;;;;;6137441;28;81208;-65
2023/03/23 00:37:04;;;;;;;5.30;3.80;;;23.70;45.40;;;;;;6154121;28;81474;-68
2023/03/23 00:40:09;;;;;;;5.88;3.72;;;23.70;45.50;;;;;;6153284;28;80702;-68
2023/03/23 00:43:13;;;;;;;4.90;3.78;;;23.60;45.30;;;;;;6139460;28;87776;-68
2023/03/23 00:46:14;;;;;;;4.18;3.33;;;23.60;45.40;;;;;;6153358;28;80207;-66
2023/03/23 00:49:15;;;;;;;5.50;3.83;;;23.60;45.40;;;;;;6153284;28;80429;-66
2023/03/23 00:52:15;;;;;;;4.25;3.13;;;23.60;45.50;;;;;;6153345;28;81707;-65
2023/03/23 00:55:16;;;;;;;5.30;3.30;;;23.60;45.40;;;;;;6152988;28;80532;-64
2023/03/23 00:58:16;;;;;;;4.30;3.03;;;23.60;45.50;;;;;;6141610;28;82552;-65
2023/03/23 01:01:17;;;;;;;4.95;2.90;;;23.60;45.70;;;;;;6129378;28;81308;-62
2023/03/23 01:04:18;;;;;;;4.88;3.05;;;23.60;45.60;;;;;;6128794;28;82517;-62
2023/03/23 01:07:18;;;;;;;3.97;3.25;;;23.60;45.50;;;;;;6110753;28;83088;-63
2023/03/23 01:10:19;;;;;;;4.53;2.90;;;23.60;45.40;;;;;;6119990;28;80963;-62
2023/03/23 01:13:20;;;;;;;4.72;3.35;;;23.60;45.40;;;;;;6128100;28;81472;-64
2023/03/23 01:16:23;;;;;;;5.05;2.80;;;23.60;45.60;;;;;;6129165;28;82063;-63
2023/03/23 01:19:23;;;;;;;3.85;2.92;;;23.60;45.70;;;;;;6129461;28;80382;-62
2023/03/23 01:22:24;;;;;;;3.60;2.83;;;23.60;45.70;;;;;;6128558;28;81503;-63
2023/03/23 01:25:24;;;;;;;3.63;3.00;;;23.60;45.80;;;;;;6128528;28;80710;-63
2023/03/23 01:28:25;;;;;;;4.03;3.15;;;23.60;45.90;;;;;;6129059;28;80900;-62
2023/03/23 01:31:26;;;;;;;3.50;2.78;;;23.60;46.00;;;;;;6111549;28;83562;-63
2023/03/23 01:34:27;;;;;;;4.40;3.13;;;23.60;46.00;;;;;;6119772;28;83514;-64
2023/03/23 01:37:27;;;;;;;3.55;2.85;;;23.60;46.10;;;;;;6126225;28;81469;-63
2023/03/23 01:40:29;;;;;;;3.60;2.72;;;23.60;46.00;;;;;;6127777;28;82840;-62
2023/03/23 01:43:31;;;;;;;5.07;2.63;;;23.60;46.10;;;;;;6109661;28;84167;-64
2023/03/23 01:46:32;;;;;;;6.05;2.47;;;23.60;45.80;;;;;;6128773;28;81360;-64
2023/03/23 01:49:32;;;;;;;3.03;2.10;;;23.60;45.90;;;;;;6128491;28;80872;-64
2023/03/23 01:52:33;;;;;;;3.15;2.65;;;23.60;46.00;;;;;;6127963;28;80525;-64
2023/03/23 01:55:36;;;;;;;4.35;2.83;;;23.60;46.10;;;;;;6111055;28;82761;-63
2023/03/23 01:58:37;;;;;;;4.32;2.90;;;23.60;46.10;;;;;;6110286;28;82301;-64
2023/03/23 02:01:42;;;;;;;5.13;3.15;;;23.60;46.00;;;;;;6109627;28;83647;-65
2023/03/23 02:04:44;;;;;;;4.13;2.33;;;23.60;45.90;;;;;;6109913;28;82843;-63
2023/03/23 02:07:44;;;;;;;3.03;2.45;;;23.60;46.10;;;;;;6110387;28;83239;-73
2023/03/23 02:10:45;;;;;;;6.90;2.53;;;23.70;46.30;;;;;;6110161;28;83692;-76
2023/03/23 02:13:46;;;;;;;6.03;3.15;;;23.60;46.90;;;;;;6111316;28;82933;-74
2023/03/23 02:16:47;;;;;;;6.57;3.28;;;23.60;46.70;;;;;;6111077;28;83056;-70
2023/03/23 02:19:47;;;;;;;3.97;2.95;;;23.60;46.60;;;;;;6109656;28;80570;-69
2023/03/23 02:22:48;;;;;;;5.20;3.45;;;23.60;47.30;;;;;;6110272;28;83482;-68
2023/03/23 02:25:49;;;;;;;4.28;2.67;;;23.60;46.40;;;;;;6110120;28;83476;-65
2023/03/23 02:28:50;;;;;;;5.28;3.38;;;23.60;46.30;;;;;;6109810;28;82969;-67
2023/03/23 02:31:51;;;;;;;5.72;3.05;;;23.60;46.20;;;;;;6125067;28;80899;-65
2023/03/23 02:34:51;;;;;;;6.22;3.17;;;23.60;46.10;;;;;;6120118;28;83014;-67
2023/03/23 02:37:52;;;;;;;4.10;2.72;;;23.60;46.10;;;;;;6109246;28;84168;-65
2023/03/23 02:40:52;;;;;;;4.35;3.33;;;23.60;46.00;;;;;;6127346;28;80300;-66
2023/03/23 02:43:53;;;;;;;4.35;3.03;;;23.60;46.00;;;;;;6122170;28;83499;-68
2023/03/23 02:46:54;;;;;;;3.92;2.92;;;23.60;45.90;;;;;;6109949;28;82310;-69
2023/03/23 02:49:54;;;;;;;5.95;3.25;;;23.60;45.80;;;;;;6109504;28;82151;-67
2023/03/23 02:52:55;;;;;;;5.53;3.15;;;23.60;45.70;;;;;;6119518;28;80296;-73
2023/03/23 02:55:56;;;;;;;4.75;3.10;;;23.60;45.70;;;;;;6114775;28;82694;-77
2023/03/23 02:58:59;;;;;;;3.35;2.70;;;23.60;45.70;;;;;;6119434;28;82372;-66
2023/03/23 03:02:02;;;;;;;3.80;2.90;;;23.60;45.90;;;;;;6149059;28;82282;-70
2023/03/23 03:05:03;;;;;;;3.05;2.60;;;23.60;46.30;;;;;;6149986;28;83785;-66
2023/03/23 03:08:04;;;;;;;4.28;3.05;;;23.60;46.00;;;;;;6149956;28;83231;-67
2023/03/23 03:11:05;;;;;;;3.75;3.00;;;23.60;45.90;;;;;;6145323;28;81907;-67
2023/03/23 03:14:06;;;;;;;3.78;2.40;;;23.60;45.80;;;;;;6151227;28;83359;-66
2023/03/23 03:17:08;;;;;;;3.83;2.35;;;23.60;45.70;;;;;;6153121;28;83046;-70
2023/03/23 03:20:13;;;;;;;3.95;2.95;;;23.60;45.60;;;;;;6140714;28;83166;-73
2023/03/23 03:23:14;;;;;;;4.60;2.90;;;23.60;45.60;;;;;;6139978;28;82661;-72
2023/03/23 03:26:17;;;;;;;3.20;2.40;;;23.60;45.50;;;;;;6154609;28;82946;-75
2023/03/23 03:29:27;;;;;;;3.70;2.45;;;23.60;45.60;;;;;;6159552;28;81456;-74
2023/03/23 03:32:30;;;;;;;3.35;2.50;;;23.60;45.40;;;;;;6154711;28;82832;-76
2023/03/23 03:35:31;;;;;;;4.53;2.70;;;23.60;45.40;;;;;;6140407;28;83073;-74
2023/03/23 03:38:32;;;;;;;4.85;2.60;;;23.60;45.40;;;;;;6155145;28;80444;-69
2023/03/23 03:41:33;;;;;;;3.35;2.50;;;23.60;45.50;;;;;;6155629;28;82143;-71
2023/03/23 03:44:34;;;;;;;4.35;2.72;;;23.60;45.40;;;;;;6153184;28;84151;-71
2023/03/23 03:47:35;;;;;;;5.32;2.50;;;23.60;45.40;;;;;;6153882;28;83657;-62
2023/03/23 03:50:36;;;;;;;3.67;2.40;;;23.60;45.40;;;;;;6153789;28;82852;-62
2023/03/23 03:53:36;;;;;;;6.22;2.83;;;23.60;45.30;;;;;;6144791;28;83965;-62
2023/03/23 03:56:40;;;;;;;4.55;2.65;;;23.60;45.30;;;;;;6148366;28;83635;-62
2023/03/23 04:00:04;;;;;;;2.55;2.30;;;23.60;45.30;;;;;;6116705;28;80526;-64
2023/03/23 04:03:16;;;;;;;4.22;2.47;;;23.60;45.10;;;;;;6149961;28;80180;-64
2023/03/23 04:06:37;;;;;;;4.15;2.30;;;23.60;45.10;;;;;;6154515;28;80707;-73
2023/03/23 04:09:38;;;;;;;4.22;2.50;;;23.60;45.00;;;;;;6148900;28;83026;-74
2023/03/23 04:12:38;;;;;;;4.07;2.63;;;23.60;45.00;;;;;;6147240;28;83516;-73
2023/03/23 04:15:58;;;;;;;3.67;2.30;;;23.60;45.00;;;;;;6140650;28;80575;-73
2023/03/23 04:19:00;;;;;;;5.53;2.33;;;23.50;44.90;;;;;;6153568;28;82459;-72
2023/03/23 04:22:01;;;;;;;3.22;2.30;;;23.50;44.90;;;;;;6153122;28;82308;-75
2023/03/23 04:25:06;;;;;;;3.33;2.20;;;23.60;44.90;;;;;;6151462;28;83617;-68
2023/03/23 04:28:10;;;;;;;3.23;2.47;;;23.60;44.70;;;;;;6152414;28;84904;-70
2023/03/23 04:31:19;;;;;;;2.08;1.83;;;23.60;44.80;;;;;;6134574;28;82964;-76
2023/03/23 04:34:25;;;;;;;3.90;2.30;;;23.60;44.60;;;;;;6153019;28;81726;-79
2023/03/23 04:37:28;;;;;;;3.15;2.30;;;23.60;44.50;;;;;;6150942;28;82901;-76
2023/03/23 04:40:29;;;;;;;2.70;2.15;;;23.60;44.50;;;;;;6150982;28;82737;-69
2023/03/23 04:43:41;;;;;;;3.08;2.17;;;23.70;44.50;;;;;;6155215;28;82534;-71
2023/03/23 04:46:54;;;;;;;2.55;2.03;;;23.60;44.50;;;;;;6145569;28;82827;-63
2023/03/23 04:49:57;;;;;;;5.68;2.30;;;23.60;44.90;;;;;;6146440;28;82479;-64
2023/03/23 04:53:03;;;;;;;3.95;2.25;;;23.60;45.30;;;;;;6140046;28;81551;-65
2023/03/23 04:56:04;;;;;;;2.78;2.10;;;23.70;45.60;;;;;;6148463;28;83667;-62
2023/03/23 04:59:13;;;;;;;3.22;2.30;;;23.60;45.10;;;;;;6149203;28;85902;-60
2023/03/23 05:02:30;;;;;;;3.20;2.40;;;23.70;45.20;;;;;;6145346;28;82575;-65
2023/03/23 05:05:32;;;;;;;3.17;2.10;;;23.60;45.40;;;;;;6136543;28;88969;-65
2023/03/23 05:08:38;;;;;;;3.83;2.15;;;23.60;45.30;;;;;;6150054;28;83410;-60
2023/03/23 05:11:40;;;;;;;4.78;2.25;;;23.70;45.70;;;;;;6159751;28;90592;-64
2023/03/23 05:14:40;;;;;;;5.07;2.10;;;23.70;46.00;;;;;;6137419;28;83391;-65
2023/03/23 05:17:44;;;;;;;4.47;1.75;;;23.70;45.90;;;;;;6149076;28;82594;-68
2023/03/23 05:20:52;;;;;;;3.13;2.35;;;23.70;46.10;;;;;;6141977;28;82261;-68
2023/03/23 05:23:56;;;;;;;3.75;2.13;;;23.70;46.00;;;;;;6144297;28;82848;-66
2023/03/23 05:26:57;;;;;;;2.53;1.98;;;23.80;45.90;;;;;;6149787;28;82823;-71
2023/03/23 05:30:05;;;;;;;3.75;2.00;;;23.80;45.90;;;;;;6150371;28;82838;-65
2023/03/23 05:33:07;;;;;;;3.83;2.28;;;23.80;45.80;;;;;;6151572;28;82839;-62
2023/03/23 05:36:35;;;;;;;3.38;2.20;;;23.80;45.60;;;;;;6147042;28;83964;-66
2023/03/23 05:40:04;;;;;;;12.30;2.92;;;23.80;45.50;;;;;;6146962;28;80418;-62
2023/03/23 05:43:08;;;;;;;7.45;2.28;;;23.80;45.50;;;;;;6152238;28;84908;-61
2023/03/23 05:46:33;;;;;;;2.85;2.10;;;23.80;45.40;;;;;;6143832;28;82259;-64
2023/03/23 05:49:36;;;;;;;4.63;2.60;;;23.80;45.20;;;;;;6123512;28;83619;-67
2023/03/23 05:52:39;;;;;;;4.47;2.67;;;23.80;45.00;;;;;;6144606;28;82743;-68
2023/03/23 05:55:43;;;;;;;5.85;2.95;;;23.80;44.70;;;;;;6118404;28;83642;-63
2023/03/23 05:58:57;;;;;;;3.38;2.35;;;23.80;44.70;;;;;;6134785;28;83746;-63
2023/03/23 06:01:58;;;;;;;7.07;3.30;;;23.80;44.50;;;;;;6117046;28;83647;-63
2023/03/23 06:04:59;;;;;;;4.38;2.65;;;23.80;44.40;;;;;;6145128;28;82270;-62
2023/03/23 06:08:03;;;;;;;5.25;2.50;;;23.80;44.40;;;;;;6131355;28;83447;-62
2023/03/23 06:11:03;;;;;;;3.45;2.55;;;23.80;44.20;;;;;;6131650;28;83104;-62
2023/03/23 06:14:07;;;;;;;6.30;2.90;;;23.80;44.00;;;;;;6130182;28;83401;-62
2023/03/23 06:17:08;;;;;;;4.90;3.00;;;23.80;43.90;;;;;;6094977;28;83836;-64
2023/03/23 06:20:09;;;;;;;5.05;2.47;;;23.80;43.90;;;;;;6146200;28;82158;-62
2023/03/23 06:23:12;;;;;;;2.78;2.38;;;23.80;43.90;;;;;;6119224;28;82940;-62
2023/03/23 06:26:16;;;;;;;4.00;2.65;;;23.80;43.90;;;;;;6138642;28;81341;-62
2023/03/23 06:29:17;;;;;;;4.95;2.70;;;23.80;43.90;;;;;;6142603;28;82260;-62
2023/03/23 06:32:22;;;;;;;5.53;2.70;;;23.90;43.80;;;;;;6141459;28;82206;-62
2023/03/23 06:35:23;;;;;;;4.22;2.72;;;23.80;43.60;;;;;;6136429;28;83401;-63
2023/03/23 06:38:40;;;;;;;3.70;2.45;;;23.80;43.50;;;;;;6124207;28;81732;-63
2023/03/23 06:41:41;;;;;;;9.07;3.17;;;23.80;43.60;;;;;;6132972;28;80555;-62
2023/03/23 06:44:42;;;;;;;5.93;2.72;;;23.80;43.40;;;;;;6149863;28;80908;-60
2023/03/23 06:47:45;;;;;;;4.07;2.70;;;23.80;43.60;;;;;;6111341;28;83842;-61
2023/03/23 06:50:46;;;;;;;4.05;2.55;;;23.80;43.70;;;;;;6126189;28;82995;-62
2023/03/23 06:53:49;;;;;;;2.58;2.28;;;23.80;43.60;;;;;;6144681;28;82320;-63
2023/03/23 06:56:51;;;;;;;4.80;2.53;;;23.80;43.40;;;;;;6146880;28;82882;-63
2023/03/23 06:59:52;;;;;;;4.00;2.53;;;23.90;43.40;;;;;;6134191;28;83456;-63
2023/03/23 07:02:53;;;;;;;4.07;3.05;;;23.80;42.00;;;;;;6137086;28;83308;-61
2023/03/23 07:05:54;;;;;;;7.95;3.35;;;22.40;42.20;;;;;;6151121;28;83060;-62
2023/03/23 07:08:56;;;;;;;10.35;3.20;;;21.70;43.30;;;;;;6137338;28;82850;-61
2023/03/23 07:12:00;;;;;;;7.10;3.45;;;21.50;44.00;;;;;;6128932;28;83487;-62
2023/03/23 07:15:10;;;;;;;7.28;3.13;;;21.10;44.20;;;;;;6127192;28;83441;-62
2023/03/23 07:18:12;;;;;;;5.43;3.60;;;21.10;44.50;;;;;;6145040;28;81482;-63
2023/03/23 07:21:19;;;;;;;6.53;3.35;;;21.00;44.50;;;;;;6149404;28;83468;-62
2023/03/23 07:24:20;;;;;;;4.50;3.08;;;20.90;44.70;;;;;;6151140;28;82802;-62
2023/03/23 07:27:34;;;;;;;5.43;3.50;;;20.90;44.50;;;;;;6137760;28;83230;-63
2023/03/23 07:30:36;;;;;;;8.13;3.33;;;20.80;44.80;;;;;;6138087;28;82642;-63
2023/03/23 07:33:37;;;;;;;10.98;3.65;;;20.80;44.50;;;;;;6099942;28;83167;-63
2023/03/23 07:36:38;;;;;;;5.28;3.25;;;20.80;44.70;;;;;;6129250;28;81400;-61
2023/03/23 07:39:41;;;;;;;7.95;3.60;;;20.80;44.80;;;;;;6128363;28;82427;-62
2023/03/23 07:42:43;;;;;;;6.88;3.42;;;20.60;44.80;;;;;;6130513;28;83374;-61
2023/03/23 07:45:44;;;;;;;7.32;3.47;;;20.50;45.10;;;;;;6130106;28;80617;-59
2023/03/23 07:48:48;;;;;;;8.18;3.42;;;20.40;45.40;;;;;;6129427;28;80535;-64
2023/03/23 07:51:49;;;;;;;5.03;3.42;;;20.60;45.40;;;;;;6129199;28;83457;-61
2023/03/23 07:54:51;;;;;;;8.20;3.00;;;20.80;45.40;;;;;;6129533;28;82586;-60
2023/03/23 07:58:21;;;;;;;6.38;4.47;;;20.70;45.40;;;;;;6130837;28;84886;-59
2023/03/23 08:01:28;;;;;;;7.03;3.33;;;20.90;44.80;;;;;;6113074;28;83362;-66
2023/03/23 08:04:47;;;;;;;6.03;3.38;;;21.00;45.00;;;;;;6129586;28;84564;-63
2023/03/23 08:08:03;;;;;;;;;;;21.10;44.60;;;;;;6112419;28;82561;-63
2023/03/23 08:11:27;;;;;;;3.90;3.22;;;21.20;44.50;;;;;;6105967;28;80255;-63
2023/03/23 08:14:52;;;;;;;4.95;3.28;;;21.50;43.90;;;;;;6121591;28;83500;-63
2023/03/23 08:18:15;;;;;;;11.75;4.30;;;21.30;44.00;;;;;;6126401;28;81140;-61
2023/03/23 08:21:16;;;;;;;7.32;3.53;;;21.30;44.30;;;;;;6130745;28;81401;-62
2023/03/23 08:24:35;;;;;;;5.72;3.33;;;21.40;44.50;;;;;;6112717;28;83404;-69
2023/03/23 08:27:59;;;;;;;7.50;3.25;;;21.50;44.30;;;;;;6119426;28;81289;-70
2023/03/23 08:31:22;;;;;;;6.43;3.13;;;21.10;44.30;;;;;;6111784;28;85059;-71
2023/03/23 08:34:38;;;;;;;5.53;3.10;;;21.20;44.40;;;;;;6127947;28;80789;-75
2023/03/23 08:38:04;;;;;;;6.25;4.38;;;21.40;44.10;;;;;;6121506;28;80483;-70
2023/03/23 08:41:24;;;;;;;5.15;3.28;;;21.30;43.60;;;;;;6127862;28;80922;-60
2023/03/23 08:44:31;;;;;;;19.98;3.97;;;21.30;43.80;;;;;;6104159;28;83197;-62
2023/03/23 08:47:51;;;;;;;6.47;3.50;;;21.20;43.60;;;;;;6113279;28;81736;-60
2023/03/23 08:51:12;;;;;;;6.18;2.90;;;21.30;43.70;;;;;;6125337;28;81872;-59
2023/03/23 08:54:46;;;;;;;4.82;2.40;;;21.40;44.80;;;;;;6110357;28;83513;-59
2023/03/23 08:57:58;;;;;;;5.15;3.75;;;21.50;44.60;;;;;;6099542;28;83548;-58
2023/03/23 09:01:10;;;;;;;10.65;3.90;;;21.70;45.20;;;;;;6107418;28;87432;-60
2023/03/23 09:04:35;;;;;;;8.07;4.13;;;21.90;45.00;;;;;;6127798;28;80602;-59
2023/03/23 09:08:03;;;;;;;8.32;3.38;;;22.10;45.20;;;;;;6078988;28;80771;-59
2023/03/23 09:11:04;;;;;;;6.78;3.55;;;22.30;45.20;;;;;;6117307;28;80579;-59
2023/03/23 09:14:05;;;;;;;16.77;4.05;;;22.40;45.50;;;;;;6128664;28;81308;-59
2023/03/23 09:17:07;;;;;;;5.68;4.03;;;22.40;46.40;;;;;;6128599;28;80270;-66
2023/03/23 09:20:10;;;;;;;10.43;4.13;;;22.50;45.80;;;;;;6129972;28;81308;-67
2023/03/23 09:23:12;;;;;;;10.23;4.35;;;22.60;46.00;;;;;;6115589;28;80744;-67
2023/03/23 09:26:13;;;;;;;5.95;4.00;;;22.60;46.00;;;;;;6128926;28;80194;-67
2023/03/23 09:29:13;;;;;;;15.57;4.90;;;22.70;45.90;;;;;;6129400;28;81562;-69
2023/03/23 09:32:14;;;;;;;7.70;3.90;;;22.70;45.90;;;;;;6112320;28;83726;-66
2023/03/23 09:35:16;;;;;;;11.10;3.55;;;22.70;46.00;;;;;;6128577;28;80509;-65
2023/03/23 09:38:16;;;;;;;11.05;3.58;;;22.80;47.00;;;;;;6128051;28;80622;-66
2023/03/23 09:41:17;;;;;;;11.85;3.35;;;22.80;47.10;;;;;;6129259;28;81369;-66
2023/03/23 09:44:17;;;;;;;8.60;3.33;;;22.80;46.00;;;;;;6129185;28;82163;-65
2023/03/23 09:47:18;;;;;;;9.32;3.40;;;22.80;46.50;;;;;;6111190;28;82548;-66
2023/03/23 09:50:19;;;;;;;8.25;2.55;;;22.80;46.30;;;;;;6108703;28;83324;-63
2023/03/23 09:53:19;;;;;;;6.88;3.08;;;22.80;46.40;;;;;;6127029;28;80791;-59
2023/03/23 09:56:20;;;;;;;5.20;3.22;;;22.80;45.60;;;;;;6126032;28;81327;-60
2023/03/23 09:59:21;;;;;;;8.60;3.35;;;22.90;45.40;;;;;;6143598;28;81228;-60
2023/03/23 10:02:21;;;;;;;9.90;2.47;;;22.90;45.60;;;;;;6158536;28;81599;-60
2023/03/23 10:05:22;;;;;;;4.60;2.72;;;22.90;45.70;;;;;;6151358;28;80747;-59
2023/03/23 10:08:22;;;;;;;6.93;2.17;;;22.90;43.90;;;;;;6152043;28;80783;-60
2023/03/23 10:11:23;;;;;;;7.72;2.65;;;23.00;44.40;;;;;;6151032;28;80148;-59
2023/03/23 10:14:24;;;;;;;3.33;2.50;;;23.10;43.30;;;;;;6151984;28;81118;-60
2023/03/23 10:17:25;;;;;;;4.10;2.38;;;23.00;41.90;;;;;;6152042;28;80933;-66
2023/03/23 10:20:28;;;;;;;3.90;2.45;;;22.90;42.40;;;;;;6152200;28;80816;-66
2023/03/23 10:23:29;;;;;;;2.60;1.83;;;23.00;41.60;;;;;;6151946;28;81673;-66
2023/03/23 10:26:29;;;;;;;5.40;2.47;;;23.10;43.00;;;;;;6146955;28;83646;-67
2023/03/23 10:29:30;;;;;;;4.18;2.33;;;23.10;40.60;;;;;;6166062;28;80514;-68
2023/03/23 10:32:30;;;;;;;3.67;2.53;;;22.90;40.80;;;;;;6150878;28;80973;-61
2023/03/23 10:35:31;;;;;;;4.30;2.10;;;22.90;39.90;;;;;;6133845;28;81618;-60
2023/03/23 10:38:31;;;;;;;3.70;2.70;;;22.90;39.30;;;;;;6151243;28;81566;-60
2023/03/23 10:41:32;;;;;;;6.82;4.15;;;22.80;39.20;;;;;;6132727;28;81697;-59
2023/03/23 10:44:32;;;;;;;8.82;3.35;;;23.00;39.20;;;;;;6148645;28;80490;-60
2023/03/23 10:47:33;;;;;;;4.43;2.90;;;23.10;39.10;;;;;;6149245;28;80467;-60
2023/03/23 10:50:34;;;;;;;6.97;3.00;;;23.20;38.90;;;;;;6150040;28;81978;-65
2023/03/23 10:53:34;;;;;;;6.25;2.60;;;23.30;39.10;;;;;;6148599;28;80451;-65
2023/03/23 10:56:35;;;;;;;4.90;2.47;;;23.30;40.00;;;;;;6148312;28;80745;-65
2023/03/23 10:59:35;;;;;;;5.75;2.70;;;23.50;39.50;;;;;;6134497;28;80811;-65
2023/03/23 11:02:36;;;;;;;8.27;3.42;;;23.30;38.50;;;;;;6148125;28;80585;-64
2023/03/23 11:05:37;;;;;;;8.35;2.53;;;23.30;39.60;;;;;;6150845;28;80371;-65
2023/03/23 11:08:37;;;;;;;6.55;2.58;;;23.20;38.30;;;;;;6139749;28;80732;-59
2023/03/23 11:11:38;;;;;;;7.75;2.38;;;23.20;38.00;;;;;;6141058;28;80318;-63
2023/03/23 11:14:39;;;;;;;5.15;2.30;;;23.20;37.70;;;;;;6150468;28;83782;-65
2023/03/23 11:17:39;;;;;;;4.70;2.35;;;23.30;37.90;;;;;;6150804;28;80303;-65
2023/03/23 11:20:41;;;;;;;2.72;1.90;;;23.30;37.20;;;;;;6150850;28;80913;-65
2023/03/23 11:23:42;;;;;;;2.58;1.88;;;23.50;37.80;;;;;;6147045;28;82312;-64
2023/03/23 11:26:42;;;;;;;10.30;2.00;;;23.70;38.00;;;;;;6152375;28;80209;-59
2023/03/23 11:29:43;;;;;;;4.07;1.98;;;23.80;40.00;;;;;;6144124;28;80202;-61
2023/03/23 11:32:43;;;;;;;6.85;2.35;;;23.90;37.90;;;;;;6149835;28;82495;-60
2023/03/23 11:35:44;;;;;;;3.30;2.15;;;24.00;39.20;;;;;;6151674;28;81276;-60
2023/03/23 11:38:44;;;;;;;4.22;2.10;;;24.10;39.40;;;;;;6153247;28;80704;-59
2023/03/23 11:41:45;;;;;;;2.92;2.22;;;24.00;37.20;;;;;;6135252;28;82439;-60
2023/03/23 11:44:46;;;;;;;4.43;3.50;;;23.90;36.20;;;;;;6153573;28;80859;-59
2023/03/23 11:47:46;;;;;;;3.25;2.08;;;23.80;36.40;;;;;;6152715;28;80952;-59
2023/03/23 11:50:47;;;;;;;6.20;2.42;;;24.00;37.20;;;;;;6147790;28;88220;-53
2023/03/23 11:53:47;;;;;;;5.97;2.35;;;24.00;37.10;;;;;;6154704;28;80891;-59
2023/03/23 11:56:48;;;;;;;5.25;2.60;;;24.00;36.60;;;;;;6154172;28;80782;-50
2023/03/23 11:59:49;;;;;;;5.43;2.60;;;24.10;37.50;;;;;;6155536;28;80463;-59
2023/03/23 12:02:49;;;;;;;4.97;2.65;;;24.10;36.60;;;;;;6154399;28;80356;-57
2023/03/23 12:05:50;;;;;;;4.55;2.40;;;24.20;37.30;;;;;;6155014;28;80750;-58
2023/03/23 12:08:51;;;;;;;5.40;2.60;;;24.00;36.60;;;;;;6154227;28;80433;-61
2023/03/23 12:11:52;;;;;;;3.28;2.08;;;23.80;36.60;;;;;;6124062;28;81436;-62
2023/03/23 12:14:52;;;;;;;6.75;2.40;;;24.00;37.20;;;;;;6154413;28;84151;-62
2023/03/23 12:17:53;;;;;;;4.60;2.28;;;23.80;36.50;;;;;;6154117;28;81706;-62
2023/03/23 12:20:53;;;;;;;3.13;2.15;;;23.70;36.60;;;;;;6136805;28;80364;-64
2023/03/23 12:23:54;;;;;;;3.13;2.28;;;23.60;36.30;;;;;;6154569;28;80472;-64
2023/03/23 12:26:55;;;;;;;3.85;2.20;;;23.30;36.40;;;;;;6158694;28;81257;-71
2023/03/23 12:29:56;;;;;;;7.30;4.90;;;23.10;36.60;;;;;;6154469;28;80777;-71
2023/03/23 12:32:56;;;;;;;3.80;3.00;;;23.10;36.80;;;;;;6153883;28;80651;-67
2023/03/23 12:35:57;;;;;;;6.20;2.85;;;23.10;37.10;;;;;;6140242;28;88289;-67
2023/03/23 12:38:57;;;;;;;8.07;2.92;;;23.30;37.50;;;;;;6153406;28;80886;-70
2023/03/23 12:41:58;;;;;;;6.15;2.50;;;23.50;38.00;;;;;;6154453;28;80780;-65
2023/03/23 12:44:58;;;;;;;6.70;2.80;;;23.50;37.50;;;;;;6154179;28;81271;-67
2023/03/23 12:47:59;;;;;;;4.40;2.72;;;23.50;38.00;;;;;;6135707;28;82148;-70
2023/03/23 12:51:00;;;;;;;3.85;2.58;;;23.60;37.70;;;;;;6119786;28;83616;-72
2023/03/23 12:54:00;;;;;;;5.95;2.53;;;23.60;37.70;;;;;;6163475;28;80567;-64
2023/03/23 12:57:01;;;;;;;2.78;1.90;;;23.60;37.60;;;;;;6152010;28;80754;-64
2023/03/23 13:00:02;;;;;;;2.95;2.20;;;23.40;37.80;;;;;;6161590;28;82108;-59
2023/03/23 13:03:05;;;;;;;4.88;2.40;;;23.50;37.90;;;;;;6151936;28;80222;-58
2023/03/23 13:06:06;;;;;;;6.40;3.13;;;23.40;37.90;;;;;;6153879;28;80420;-61
2023/03/23 13:09:06;;;;;;;5.80;2.22;;;23.50;38.40;;;;;;6150237;28;80647;-59
2023/03/23 13:12:07;;;;;;;6.93;3.10;;;23.60;37.80;;;;;;6147781;28;81597;-60
2023/03/23 13:15:08;;;;;;;5.03;2.92;;;23.50;38.00;;;;;;6149162;28;80391;-61
2023/03/23 13:18:09;;;;;;;5.82;2.53;;;23.50;38.10;;;;;;6148484;28;80974;-70
2023/03/23 13:21:09;;;;;;;13.32;4.75;;;23.50;38.30;;;;;;6153648;28;80637;-71
2023/03/23 13:24:10;;;;;;;4.93;2.70;;;23.20;38.00;;;;;;6157152;28;80834;-61
2023/03/23 13:27:11;;;;;;;5.68;3.28;;;23.10;38.20;;;;;;6150081;28;80605;-63
2023/03/23 13:30:13;;;;;;;5.32;3.10;;;22.90;39.40;;;;;;6144721;28;80822;-61
2023/03/23 13:33:13;;;;;;;7.15;3.05;;;22.90;39.10;;;;;;6149134;28;81556;-60
2023/03/23 13:36:14;;;;;;;9.40;4.43;;;23.00;38.90;;;;;;6134110;28;81504;-58
2023/03/23 13:39:14;;;;;;;7.13;4.30;;;23.00;39.00;;;;;;6150840;28;80144;-58
2023/03/23 13:42:15;;;;;;;8.65;3.50;;;23.10;39.10;;;;;;6150940;28;82329;-57
2023/03/23 13:45:16;;;;;;;6.75;3.83;;;23.10;39.00;;;;;;6149808;28;80996;-58
2023/03/23 13:48:16;;;;;;;7.75;3.38;;;23.20;39.40;;;;;;6148796;28;80469;-59
2023/03/23 13:51:17;;;;;;;4.75;2.95;;;23.20;39.30;;;;;;6149053;28;81950;-58
2023/03/23 13:54:18;;;;;;;7.95;3.72;;;23.20;39.10;;;;;;6149505;28;80623;-62
2023/03/23 13:57:18;;;;;;;5.05;3.13;;;23.20;39.30;;;;;;6155548;28;80609;-62
2023/03/23 14:00:19;;;;;;;4.38;2.72;;;23.30;39.50;;;;;;6131517;28;80203;-62
2023/03/23 14:03:19;;;;;;;5.43;2.95;;;23.30;39.70;;;;;;6127352;28;80390;-63
2023/03/23 14:06:20;;;;;;;5.57;2.80;;;23.30;39.60;;;;;;6128103;28;81324;-64
2023/03/23 14:09:38;;;;;;;5.32;2.60;;;23.30;39.50;;;;;;6106892;28;82435;-62
2023/03/23 14:12:39;;;;;;;9.60;2.47;;;23.30;39.60;;;;;;6121322;28;80317;-62
2023/03/23 14:15:39;;;;;;;8.13;3.50;;;23.30;39.40;;;;;;6128099;28;82505;-62
2023/03/23 14:18:40;;;;;;;6.65;3.55;;;23.10;39.90;;;;;;6110659;28;80214;-63
2023/03/23 14:21:40;;;;;;;6.13;2.97;;;23.10;39.80;;;;;;6129122;28;80808;-62
2023/03/23 14:24:41;;;;;;;5.78;3.15;;;23.10;39.90;;;;;;6127764;28;80397;-62
2023/03/23 14:27:42;;;;;;;7.53;2.72;;;23.20;39.80;;;;;;6110575;28;82105;-63
2023/03/23 14:30:42;;;;;;;4.65;2.92;;;23.20;39.80;;;;;;6109719;28;80414;-62
2023/03/23 14:33:43;;;;;;;6.50;3.08;;;23.10;39.60;;;;;;6128523;28;80337;-63
2023/03/23 14:36:43;;;;;;;4.80;3.13;;;22.90;39.90;;;;;;6109359;28;82447;-62
2023/03/23 14:39:44;;;;;;;5.63;2.97;;;22.90;40.10;;;;;;6128651;28;80532;-62
2023/03/23 14:42:45;;;;;;;6.63;2.70;;;23.00;40.00;;;;;;6127022;28;83587;-61
2023/03/23 14:45:45;;;;;;;8.45;3.78;;;22.80;40.20;;;;;;6128392;28;81105;-62
2023/03/23 14:48:46;;;;;;;10.43;3.35;;;22.70;40.30;;;;;;6127103;28;80393;-62
2023/03/23 14:51:46;;;;;;;5.00;2.60;;;22.80;40.20;;;;;;6126597;28;80832;-64
2023/03/23 14:54:47;;;;;;;6.03;2.78;;;22.70;40.30;;;;;;6126568;28;81837;-62
2023/03/23 14:57:47;;;;;;;5.53;2.78;;;22.70;40.50;;;;;;6123378;28;82893;-65
2023/03/23 15:00:48;;;;;;;6.40;2.72;;;22.70;40.30;;;;;;6126149;28;80542;-63
2023/03/23 15:03:49;;;;;;;8.40;2.88;;;22.60;40.60;;;;;;6127595;28;80881;-64
2023/03/23 15:06:49;;;;;;;5.43;2.72;;;22.80;40.70;;;;;;6109574;28;80213;-56
2023/03/23 15:09:50;;;;;;;6.60;2.60;;;22.80;40.60;;;;;;6123956;28;82152;-57
2023/03/23 15:12:51;;;;;;;6.90;2.63;;;22.90;40.90;;;;;;6130372;28;80677;-54
2023/03/23 15:15:52;;;;;;;8.40;2.83;;;22.90;40.70;;;;;;6107757;28;80988;-57
2023/03/23 15:18:53;;;;;;;6.68;2.90;;;23.00;40.70;;;;;;6111779;28;80408;-62
2023/03/23 15:21:54;;;;;;;7.15;3.13;;;23.10;41.00;;;;;;6117294;28;80483;-61
2023/03/23 15:24:54;;;;;;;10.77;2.60;;;23.10;40.70;;;;;;6122181;28;80491;-60
2023/03/23 15:27:55;;;;;;;8.32;2.20;;;23.10;40.80;;;;;;6123390;28;82956;-59
2023/03/23 15:30:57;;;;;;;6.20;2.85;;;23.10;40.70;;;;;;6126444;28;80353;-61
2023/03/23 15:33:58;;;;;;;11.05;2.80;;;23.20;40.80;;;;;;6122051;28;81065;-59
2023/03/23 15:36:58;;;;;;;5.72;2.42;;;23.30;40.70;;;;;;6125958;28;80781;-65
2023/03/23 15:39:59;;;;;;;9.25;2.00;;;23.30;40.90;;;;;;6126359;28;80376;-66
2023/03/23 15:43:00;;;;;;;12.15;3.13;;;23.40;41.00;;;;;;6121025;28;86294;-65
2023/03/23 15:46:05;;;;;;;17.42;2.95;;;23.40;40.70;;;;;;6108975;28;82136;-63
2023/03/23 15:49:06;;;;;;;7.97;3.03;;;23.50;40.90;;;;;;6110671;28;82972;-64
2023/03/23 15:52:06;;;;;;;6.78;3.20;;;23.50;41.00;;;;;;6126790;28;81324;-62